Time;durP1;ratioP1;P1;durP2;ratioP2;P2;SDS_P1;SDS_P2;PMS_P1;PMS_P2;Temp;Humidity;BMP_temperature;BMP_pressure;BME280_temperature;BME280_humidity;BME280_pressure;Samples;Min_cycle;Max_cycle;Signal;HPM_P1;HPM_P2
2022/05/28 00:00:31;;;;;;;5.30;4.80;;;;;;;19.06;90.93;63976.88;5046752;28;20217;-73
2022/05/28 00:02:58;;;;;;;8.75;5.05;;;;;;;19.08;90.92;63976.38;5042357;28;20205;-74
2022/05/28 00:05:25;;;;;;;10.93;5.00;;;;;;;19.07;91.68;63969.66;5048039;28;20221;-74
2022/05/28 00:07:51;;;;;;;8.45;5.15;;;;;;;19.06;92.12;63969.13;5038924;28;20233;-74
2022/05/28 00:10:19;;;;;;;7.72;4.68;;;;;;;19.09;92.08;63977.41;5026777;28;20455;-75
2022/05/28 00:12:48;;;;;;;7.30;5.30;;;;;;;19.04;92.08;63972.22;5038253;28;20208;-75
2022/05/28 00:15:15;;;;;;;6.85;5.45;;;;;;;19.09;92.46;63976.88;5042806;28;20377;-76
2022/05/28 00:17:42;;;;;;;5.65;4.93;;;;;;;19.05;92.37;63973.25;5035415;28;20541;-75
2022/05/28 00:20:11;;;;;;;6.45;4.95;;;;;;;19.08;92.05;63976.38;5032356;28;20225;-75
2022/05/28 00:22:39;;;;;;;9.82;4.93;;;;;;;19.08;91.78;63975.84;5042913;28;20208;-75
2022/05/28 00:25:10;;;;;;;6.22;5.30;;;;;;;19.05;92.21;63975.81;5043062;28;20264;-76
2022/05/28 00:27:37;;;;;;;5.55;4.53;;;;;;;19.06;92.04;63971.19;5023406;28;20415;-76
2022/05/28 00:30:07;;;;;;;5.70;4.90;;;;;;;18.99;93.26;63964.41;5042187;28;20221;-75
2022/05/28 00:32:33;;;;;;;5.07;4.57;;;;;;;18.98;93.42;63965.44;5024417;28;20248;-76
2022/05/28 00:35:00;;;;;;;5.10;4.28;;;;;;;18.91;94.26;63958.66;5027789;28;20252;-75
2022/05/28 00:37:27;;;;;;;8.98;5.20;;;;;;;18.91;94.85;63950.41;5031329;28;20394;-75
2022/05/28 00:39:54;;;;;;;5.47;4.88;;;;;;;18.83;94.89;63947.72;5027892;28;20542;-76
2022/05/28 00:42:21;;;;;;;9.93;5.13;;;;;;;18.88;95.33;63955.00;5035273;28;20528;-76
2022/05/28 00:44:48;;;;;;;7.40;5.57;;;;;;;18.89;94.51;63956.03;5032767;28;20522;-74
2022/05/28 00:47:18;;;;;;;5.68;4.63;;;;;;;18.80;95.56;63942.03;5035504;28;20212;-75
2022/05/28 00:49:45;;;;;;;10.13;5.32;;;;;;;18.76;95.57;63942.50;5046379;28;20227;-77
2022/05/28 00:52:14;;;;;;;7.07;4.97;;;;;;;18.72;96.73;63936.28;5044386;28;20197;-75
2022/05/28 00:54:44;;;;;;;5.45;4.90;;;;;;;18.73;96.38;63939.88;5037370;28;20264;-76
2022/05/28 00:57:14;;;;;;;7.15;4.90;;;;;;;18.70;97.27;63936.25;5039911;28;20201;-76
2022/05/28 00:59:41;;;;;;;9.57;5.38;;;;;;;18.67;96.98;63931.06;5046211;28;20248;-75
2022/05/28 01:02:13;;;;;;;8.02;5.68;;;;;;;18.64;97.32;63933.09;5035636;28;20252;-76
2022/05/28 01:04:48;;;;;;;5.55;5.00;;;;;;;18.69;97.15;63930.03;5031669;28;20296;-75
2022/05/28 01:07:24;;;;;;;6.57;5.05;;;;;;;18.64;97.79;63927.41;5029999;28;20194;-75
2022/05/28 01:09:58;;;;;;;5.60;5.03;;;;;;;18.64;97.93;63927.41;5042298;28;20220;-75
2022/05/28 01:12:36;;;;;;;6.25;5.25;;;;;;;18.61;98.51;63926.84;5045168;28;20510;-75
2022/05/28 01:15:09;;;;;;;9.70;5.35;;;;;;;18.49;98.85;63914.34;5035458;28;20226;-75
2022/05/28 01:17:40;;;;;;;5.57;4.68;;;;;;;18.31;100.00;63894.03;5031566;28;20202;-76
2022/05/28 01:20:14;;;;;;;6.70;5.90;;;;;;;18.24;100.00;63888.81;5046546;28;20243;-75
2022/05/28 01:22:55;;;;;;;6.55;5.88;;;;;;;18.22;100.00;63887.22;5044602;28;20201;-74
2022/05/28 01:25:29;;;;;;;7.55;6.03;;;;;;;18.31;100.00;63894.03;5052994;28;20221;-75
2022/05/28 01:28:01;;;;;;;7.05;5.68;;;;;;;18.38;100.00;63900.81;5051550;28;20224;-76
2022/05/28 01:30:28;;;;;;;11.30;5.57;;;;;;;18.36;100.00;63899.25;5046181;28;20221;-74
2022/05/28 01:32:57;;;;;;;10.30;6.38;;;;;;;18.34;100.00;63896.66;5044715;28;20444;-75
2022/05/28 01:35:27;;;;;;;8.55;5.55;;;;;;;18.25;100.00;63884.69;5046346;28;20221;-75
2022/05/28 01:37:55;;;;;;;5.32;4.90;;;;;;;18.26;100.00;63891.41;5035098;28;20273;-75
2022/05/28 01:40:24;;;;;;;14.63;5.28;;;;;;;18.26;100.00;63890.88;5027054;28;20577;-76
2022/05/28 01:42:55;;;;;;;5.28;4.78;;;;;;;18.18;100.00;63880.50;5036071;28;20244;-76
2022/05/28 01:45:27;;;;;;;4.85;4.45;;;;;;;18.14;100.00;63878.91;5044524;28;20241;-75
2022/05/28 01:47:57;;;;;;;6.75;5.15;;;;;;;18.27;99.59;63894.50;5045371;28;20233;-76
2022/05/28 01:50:27;;;;;;;6.00;4.78;;;;;;;18.30;99.23;63893.00;5041101;28;20217;-75
2022/05/28 01:52:55;;;;;;;13.48;4.93;;;;;;;18.51;97.74;63914.38;5043191;28;20197;-76
2022/05/28 01:55:27;;;;;;;8.95;5.18;;;;;;;18.51;97.41;63919.00;5043103;28;20214;-75
2022/05/28 01:57:54;;;;;;;8.40;5.78;;;;;;;18.59;96.99;63922.19;5044662;28;20194;-76
2022/05/28 02:00:21;;;;;;;9.52;5.22;;;;;;;18.75;95.35;63938.88;5043140;28;20229;-77
2022/05/28 02:02:50;;;;;;;7.93;5.05;;;;;;;18.82;94.92;63948.75;5044053;28;20205;-76
2022/05/28 02:05:17;;;;;;;5.28;4.53;;;;;;;18.80;95.91;63947.19;5045110;28;20225;-76
2022/05/28 02:07:44;;;;;;;11.07;5.45;;;;;;;18.76;96.20;63940.44;5042779;28;20251;-75
2022/05/28 02:10:14;;;;;;;8.50;5.93;;;;;;;18.75;96.33;63938.88;5045156;28;20530;-76
2022/05/28 02:12:48;;;;;;;9.70;5.90;;;;;;;18.68;96.56;63932.09;5044863;28;20499;-75
2022/05/28 02:15:26;;;;;;;8.57;5.97;;;;;;;18.67;96.21;63935.69;5044978;28;20216;-76
2022/05/28 02:18:01;;;;;;;9.18;4.90;;;;;;;18.65;96.64;63931.03;5039950;28;20197;-75
2022/05/28 02:20:34;;;;;;;7.03;5.22;;;;;;;18.61;94.06;63927.38;5031403;28;20442;-75
2022/05/28 02:23:07;;;;;;;8.90;5.20;;;;;;;18.69;92.43;63930.03;5024810;28;20198;-75
2022/05/28 02:25:39;;;;;;;10.27;4.85;;;;;;;18.71;91.89;63932.63;5038896;28;20225;-76
2022/05/28 02:28:10;;;;;;;6.82;5.78;;;;;;;18.66;93.50;63932.06;5042199;28;20444;-74
2022/05/28 02:30:46;;;;;;;8.15;5.50;;;;;;;18.61;95.11;63927.38;5046655;28;20218;-75
2022/05/28 02:33:14;;;;;;;11.93;5.53;;;;;;;18.54;95.12;63914.94;5049811;28;20228;-74
2022/05/28 02:35:41;;;;;;;9.77;5.93;;;;;;;18.55;96.24;63915.44;5045493;28;20232;-75
2022/05/28 02:38:08;;;;;;;8.25;5.75;;;;;;;18.54;95.93;63917.50;5046410;28;20204;-75
2022/05/28 02:40:35;;;;;;;8.30;5.75;;;;;;;18.48;95.71;63910.72;5045171;28;20217;-76
2022/05/28 02:43:03;;;;;;;7.63;5.05;;;;;;;18.44;95.70;63909.66;5044624;28;20209;-75
2022/05/28 02:45:31;;;;;;;7.53;4.47;;;;;;;18.47;94.90;63912.25;5041979;28;20225;-75
2022/05/28 02:47:57;;;;;;;5.90;4.85;;;;;;;18.37;94.77;63897.72;5045734;28;20205;-76
2022/05/28 02:50:27;;;;;;;8.70;4.72;;;;;;;18.47;91.21;63909.69;5042969;28;20221;-75
2022/05/28 02:52:55;;;;;;;5.05;4.55;;;;;;;18.43;92.26;63903.97;5040065;28;20280;-75
2022/05/28 02:55:22;;;;;;;7.32;4.25;;;;;;;18.53;91.25;63915.94;5035356;28;20274;-75
2022/05/28 02:57:49;;;;;;;6.13;4.20;;;;;;;18.59;89.30;63924.78;5044359;28;20269;-75
2022/05/28 03:00:17;;;;;;;7.90;4.35;;;;;;;18.58;88.86;63921.16;5032022;28;20215;-75
2022/05/28 03:02:44;;;;;;;7.85;3.88;;;;;;;18.56;88.25;63921.66;5030528;28;20240;-75
2022/05/28 03:05:13;;;;;;;5.25;3.75;;;;;;;18.51;88.09;63916.97;5043984;28;20320;-74
2022/05/28 03:07:41;;;;;;;6.40;4.00;;;;;;;18.50;88.08;63910.75;5044352;28;20425;-75
2022/05/28 03:10:11;;;;;;;5.20;3.63;;;;;;;18.53;87.64;63915.94;5044439;28;20232;-75
2022/05/28 03:12:38;;;;;;;4.50;3.80;;;;;;;18.55;86.79;63918.03;5032529;28;20602;-75
2022/05/28 03:15:06;;;;;;;5.53;3.92;;;;;;;18.62;86.85;63927.91;5036453;28;20407;-74
2022/05/28 03:17:33;;;;;;;4.57;4.18;;;;;;;18.68;85.64;63934.16;5044060;28;20397;-75
2022/05/28 03:20:01;;;;;;;3.60;3.40;;;;;;;18.72;83.89;63938.31;5042396;28;20217;-74
2022/05/28 03:22:28;;;;;;;6.88;3.90;;;;;;;18.72;83.96;63933.16;5038601;28;20216;-75
2022/05/28 03:24:56;;;;;;;6.88;3.90;;;;;;;18.81;82.66;63947.72;5043691;28;20545;-75
2022/05/28 03:27:23;;;;;;;11.63;4.28;;;;;;;18.79;83.15;63945.63;5043208;28;20564;-75
2022/05/28 03:29:50;;;;;;;3.75;3.38;;;;;;;18.83;83.05;63947.19;5038396;28;20526;-74
2022/05/28 03:32:17;;;;;;;5.15;3.90;;;;;;;18.79;82.87;63948.72;5039421;28;20196;-75
2022/05/28 03:34:44;;;;;;;4.20;3.70;;;;;;;18.79;83.13;63948.72;5042463;28;20296;-75
2022/05/28 03:37:11;;;;;;;5.55;4.05;;;;;;;18.83;82.86;63947.19;5033011;28;20199;-74
2022/05/28 03:39:38;;;;;;;7.50;3.55;;;;;;;18.88;82.48;63955.53;5032979;28;20315;-75
2022/05/28 03:42:06;;;;;;;6.13;3.83;;;;;;;18.94;82.11;63959.22;5026082;28;20213;-75
2022/05/28 03:44:33;;;;;;;6.50;4.10;;;;;;;18.88;82.20;63952.94;5042540;28;20225;-75
2022/05/28 03:47:00;;;;;;;5.95;3.30;;;;;;;18.98;81.83;63965.44;5042189;28;20205;-75
2022/05/28 03:49:30;;;;;;;6.28;3.63;;;;;;;19.05;81.93;63970.66;5038731;28;20529;-75
2022/05/28 03:51:57;;;;;;;5.60;3.78;;;;;;;19.09;80.96;63974.31;5034928;28;20204;-74
2022/05/28 03:54:24;;;;;;;8.30;3.72;;;;;;;19.24;80.08;63989.97;5041781;28;20491;-75
2022/05/28 03:56:56;;;;;;;6.22;3.47;;;;;;;19.35;80.33;64001.44;5037069;28;20256;-74
2022/05/28 03:59:24;;;;;;;9.70;4.22;;;;;;;19.46;79.17;64012.91;5023070;28;20234;-76
2022/05/28 04:01:53;;;;;;;4.05;3.75;;;;;;;19.54;78.58;64019.19;5030007;28;20207;-75
2022/05/28 04:04:20;;;;;;;6.30;3.80;;;;;;;19.69;77.27;64031.72;5044059;28;20271;-75
2022/05/28 04:06:47;;;;;;;4.18;3.22;;;;;;;19.78;77.58;64048.88;5037371;28;20390;-75
2022/05/28 04:09:14;;;;;;;4.85;3.95;;;;;;;19.76;79.01;64046.78;5032644;28;20233;-76
2022/05/28 04:11:41;;;;;;;8.95;4.13;;;;;;;19.83;79.33;64053.59;5023624;28;20194;-75
2022/05/28 04:14:08;;;;;;;4.60;4.18;;;;;;;19.88;80.41;64054.13;5039660;28;20642;-75
2022/05/28 04:16:37;;;;;;;4.90;3.90;;;;;;;19.64;83.06;64036.84;5041901;28;20503;-76
2022/05/28 04:19:04;;;;;;;7.53;4.70;;;;;;;19.75;82.84;64045.75;5040648;28;20193;-75
2022/05/28 04:21:31;;;;;;;7.43;4.63;;;;;;;19.83;82.96;64054.09;5033561;28;20219;-76
2022/05/28 04:23:58;;;;;;;4.00;3.63;;;;;;;20.00;82.36;64071.31;5036236;28;20198;-75
2022/05/28 04:26:25;;;;;;;5.93;4.18;;;;;;;20.10;82.65;64081.75;5042455;28;20209;-75
2022/05/28 04:28:52;;;;;;;6.45;4.18;;;;;;;20.27;80.30;64096.91;5025687;28;20296;-74
2022/05/28 04:31:19;;;;;;;4.90;3.85;;;;;;;20.47;78.13;64120.91;5042171;28;20232;-74
2022/05/28 04:33:48;;;;;;;5.28;3.45;;;;;;;20.48;77.49;64121.44;5033022;28;20217;-75
2022/05/28 04:36:15;;;;;;;5.53;4.07;;;;;;;19.66;86.73;64031.19;5042149;28;20213;-75
2022/05/28 04:38:41;;;;;;;6.35;4.30;;;;;;;19.17;90.17;63982.66;5025390;28;20237;-75
2022/05/28 04:41:08;;;;;;;7.40;4.05;;;;;;;18.70;86.35;63936.75;5033868;28;20229;-75
2022/05/28 04:43:36;;;;;;;8.38;4.03;;;;;;;18.83;86.61;63949.78;5035197;28;20209;-75
2022/05/28 04:46:03;;;;;;;7.07;4.25;;;;;;;19.12;85.96;63977.97;5041227;28;20284;-75
2022/05/28 04:48:30;;;;;;;4.00;3.60;;;;;;;18.76;88.10;63943.00;5035626;28;20235;-75
2022/05/28 04:50:58;;;;;;;8.02;3.80;;;;;;;18.88;89.43;63955.00;5038522;28;20229;-74
2022/05/28 04:53:25;;;;;;;5.63;4.03;;;;;;;18.89;88.33;63953.47;5037623;28;20205;-76
2022/05/28 04:55:52;;;;;;;3.85;3.38;;;;;;;18.95;87.58;63960.25;5023701;28;20221;-75
2022/05/28 04:58:19;;;;;;;5.85;3.72;;;;;;;18.92;88.21;63954.00;5042639;28;20235;-76
2022/05/28 05:00:48;;;;;;;10.15;3.85;;;;;;;18.96;89.94;63961.28;5037379;28;20222;-76
2022/05/28 05:03:15;;;;;;;6.30;3.92;;;;;;;19.07;93.09;63972.75;5042370;28;20213;-76
2022/05/28 05:05:42;;;;;;;8.50;4.47;;;;;;;18.97;96.49;63962.31;5051781;28;20221;-74
2022/05/28 05:08:10;;;;;;;5.60;4.60;;;;;;;18.73;100.00;63939.38;5046667;28;20197;-73
2022/05/28 05:10:38;;;;;;;6.07;4.55;;;;;;;18.41;100.00;63903.97;5038668;28;20225;-72
2022/05/28 05:13:05;;;;;;;10.18;4.93;;;;;;;18.27;100.00;63891.94;5039088;28;20197;-72
2022/05/28 05:15:33;;;;;;;8.68;4.78;;;;;;;18.12;100.00;63871.66;5039597;28;20221;-73
2022/05/28 05:17:59;;;;;;;4.90;4.43;;;;;;;17.84;100.00;63847.66;5025646;28;20209;-73
2022/05/28 05:20:27;;;;;;;10.63;4.82;;;;;;;17.62;100.00;63821.66;5040521;28;20222;-74
2022/05/28 05:22:54;;;;;;;15.07;5.82;;;;;;;17.55;100.00;63814.88;5041786;28;20201;-74
2022/05/28 05:25:26;;;;;;;9.45;4.93;;;;;;;17.48;100.00;63804.50;5048036;28;20274;-76
2022/05/28 05:27:53;;;;;;;8.75;5.40;;;;;;;17.48;100.00;63807.06;5045771;28;20228;-73
2022/05/28 05:30:20;;;;;;;16.98;5.95;;;;;;;17.30;100.00;63788.81;5045185;28;20225;-73
2022/05/28 05:32:47;;;;;;;9.07;5.22;;;;;;;17.34;100.00;63796.09;5042624;28;20247;-76
2022/05/28 05:35:14;;;;;;;12.10;5.35;;;;;;;17.43;100.00;63801.84;5044801;28;20252;-73
2022/05/28 05:37:41;;;;;;;13.13;5.68;;;;;;;17.33;100.00;63794.53;5033194;28;20255;-72
2022/05/28 05:40:09;;;;;;;11.10;5.60;;;;;;;17.30;100.00;63783.69;5044896;28;20462;-74
2022/05/28 05:42:38;;;;;;;11.55;5.18;;;;;;;17.51;100.00;63810.19;5040925;28;20197;-73
2022/05/28 05:45:06;;;;;;;10.40;5.95;;;;;;;17.69;100.00;63826.38;5033458;28;20256;-72
2022/05/28 05:47:33;;;;;;;7.95;5.55;;;;;;;17.85;100.00;63843.03;5041252;28;20214;-73
2022/05/28 05:50:00;;;;;;;9.05;5.40;;;;;;;18.20;100.00;63872.28;5042242;28;20283;-74
2022/05/28 05:52:28;;;;;;;11.27;7.40;;;;;;;18.44;100.00;63907.09;5042493;28;20206;-75
2022/05/28 05:54:55;;;;;;;9.95;5.57;;;;;;;18.67;100.00;63925.38;5037691;28;20223;-76
2022/05/28 05:57:22;;;;;;;7.90;5.93;;;;;;;19.04;100.00;63966.50;5034575;28;20498;-76
2022/05/28 05:59:51;;;;;;;6.65;4.75;;;;;;;19.28;100.00;63994.66;5045051;28;20382;-75
2022/05/28 06:02:18;;;;;;;5.97;4.60;;;;;;;19.44;100.00;64013.41;5045796;28;20201;-76
2022/05/28 06:04:44;;;;;;;5.28;4.75;;;;;;;19.46;100.00;64012.91;5049365;28;20232;-75
2022/05/28 06:07:14;;;;;;;7.97;6.15;;;;;;;19.39;100.00;64006.16;5047415;28;20247;-77
2022/05/28 06:09:42;;;;;;;7.35;5.53;;;;;;;19.60;100.00;64021.84;5042303;28;20297;-76
2022/05/28 06:12:09;;;;;;;10.70;6.43;;;;;;;19.64;100.00;64028.59;5033131;28;20217;-75
2022/05/28 06:14:36;;;;;;;8.15;6.03;;;;;;;19.92;100.00;64065.53;5041774;28;20734;-77
2022/05/28 06:17:05;;;;;;;7.63;5.68;;;;;;;19.95;100.00;64066.63;5047494;28;20197;-76
2022/05/28 06:19:32;;;;;;;7.38;5.88;;;;;;;20.11;100.00;64075.56;5047966;28;20217;-76
2022/05/28 06:21:59;;;;;;;6.68;5.88;;;;;;;20.38;100.00;64106.34;5047174;28;20248;-76
2022/05/28 06:24:26;;;;;;;10.02;5.78;;;;;;;20.64;100.00;64135.53;5046152;28;20256;-77
2022/05/28 06:26:53;;;;;;;11.15;6.65;;;;;;;20.82;100.00;64151.22;5045372;28;20208;-77
2022/05/28 06:29:20;;;;;;;9.95;5.85;;;;;;;20.97;100.00;64170.00;5044932;28;20232;-78
2022/05/28 06:31:47;;;;;;;8.90;6.25;;;;;;;20.98;100.00;64173.66;5044186;28;20201;-77
2022/05/28 06:34:15;;;;;;;7.65;6.47;;;;;;;21.13;100.00;64183.59;5044668;28;20487;-77
2022/05/28 06:36:42;;;;;;;6.70;6.13;;;;;;;21.49;100.00;64224.31;5043958;28;20202;-77
2022/05/28 06:39:09;;;;;;;10.02;6.60;;;;;;;21.83;100.00;64259.34;5036059;28;20498;-78
2022/05/28 06:41:36;;;;;;;6.28;5.55;;;;;;;22.18;100.00;64295.38;5046492;28;20267;-79
2022/05/28 06:44:04;;;;;;;5.00;4.45;;;;;;;22.64;97.96;64346.63;5028038;28;20202;-77
2022/05/28 06:46:31;;;;;;;7.68;4.88;;;;;;;22.85;96.19;64368.03;5025148;28;20205;-78
2022/05/28 06:48:58;;;;;;;9.65;4.85;;;;;;;22.91;93.40;64371.72;5030432;28;20194;-77
2022/05/28 06:51:27;;;;;;;9.45;5.10;;;;;;;23.01;91.98;64382.19;5042300;28;20217;-77
2022/05/28 06:53:54;;;;;;;7.07;5.15;;;;;;;23.21;90.10;64397.38;5046216;28;20495;-80
2022/05/28 06:56:20;;;;;;;11.77;5.38;;;;;;;22.94;87.69;64369.66;5043606;28;20581;-76
2022/05/28 06:58:48;;;;;;;6.07;5.45;;;;;;;22.71;89.95;64348.22;5039787;28;20201;-76
2022/05/28 07:01:16;;;;;;;9.15;5.85;;;;;;;22.52;89.21;64331.44;5041001;28;20225;-77
2022/05/28 07:03:43;;;;;;;8.32;5.47;;;;;;;22.52;90.57;64330.94;5036751;28;20494;-78
2022/05/28 07:06:11;;;;;;;8.25;6.22;;;;;;;22.53;90.09;64332.50;5042468;28;20458;-77
2022/05/28 07:08:40;;;;;;;7.63;5.47;;;;;;;22.70;86.52;64347.16;5044014;28;20205;-78
2022/05/28 07:11:07;;;;;;;6.10;4.90;;;;;;;22.81;83.13;64361.78;5042383;28;20263;-77
2022/05/28 07:13:36;;;;;;;4.85;4.30;;;;;;;23.04;83.05;64384.81;5028953;28;20294;-77
2022/05/28 07:16:05;;;;;;;8.63;4.70;;;;;;;23.16;77.90;64400.47;5034932;28;20233;-78
2022/05/28 07:18:32;;;;;;;6.93;4.53;;;;;;;23.47;76.10;64429.81;5026733;28;20198;-77
2022/05/28 07:20:59;;;;;;;5.28;4.43;;;;;;;23.76;75.01;64457.56;5034246;28;20256;-78
2022/05/28 07:23:28;;;;;;;4.90;4.50;;;;;;;24.16;73.26;64502.03;5043240;28;20380;-77
2022/05/28 07:26:01;;;;;;;5.63;3.80;;;;;;;24.39;60.92;64522.97;5042316;28;20428;-78
2022/05/28 07:28:31;;;;;;;7.50;3.95;;;;;;;24.30;58.81;64519.28;5025030;28;20194;-78
2022/05/28 07:31:00;;;;;;;4.05;3.75;;;;;;;24.71;60.50;64559.13;5025799;28;20233;-78
2022/05/28 07:33:29;;;;;;;5.32;4.88;;;;;;;24.93;62.06;64576.94;5030786;28;20193;-83
2022/05/28 07:35:57;;;;;;;10.50;5.70;;;;;;;25.08;63.02;64600.47;5053236;28;20239;-83
2022/05/28 07:38:26;;;;;;;4.70;4.30;;;;;;;24.97;63.85;64586.34;5044023;28;20198;-79
2022/05/28 07:40:53;;;;;;;9.00;4.53;;;;;;;24.88;61.65;64577.44;5045036;28;20225;-77
2022/05/28 07:43:22;;;;;;;9.18;6.60;;;;;;;24.68;63.28;64556.47;5045463;28;20209;-77
2022/05/28 07:45:49;;;;;;;19.02;12.05;;;;;;;24.93;64.12;64580.06;5049470;28;20593;-77
2022/05/28 07:48:17;;;;;;;8.02;4.97;;;;;;;25.28;61.53;64620.91;5043994;28;20227;-78
2022/05/28 07:50:45;;;;;;;6.97;4.32;;;;;;;25.44;62.02;64632.97;5043827;28;20256;-78
2022/05/28 07:53:13;;;;;;;6.57;4.70;;;;;;;25.56;61.90;64645.03;5042100;28;20251;-77
2022/05/28 07:55:40;;;;;;;6.53;4.55;;;;;;;25.84;64.19;64677.50;5036960;28;20214;-77
2022/05/28 07:58:10;;;;;;;9.07;4.40;;;;;;;26.08;62.64;64699.53;5028271;28;20298;-77
2022/05/28 08:00:40;;;;;;;16.17;5.22;;;;;;;26.16;62.62;64710.56;5028712;28;20221;-77
2022/05/28 08:03:08;;;;;;;4.45;3.97;;;;;;;26.18;61.81;64715.78;5030464;28;20510;-78
2022/05/28 08:05:35;;;;;;;9.55;4.25;;;;;;;26.24;60.99;64721.56;5039316;28;20237;-78
2022/05/28 08:08:02;;;;;;;9.32;4.38;;;;;;;26.53;61.34;64746.19;5034708;28;20257;-77
2022/05/28 08:10:29;;;;;;;5.35;4.20;;;;;;;26.75;59.62;64772.44;5029046;28;20233;-77
2022/05/28 08:13:00;;;;;;;9.15;4.60;;;;;;;26.70;59.10;64774.50;5025773;28;20221;-78
2022/05/28 08:15:27;;;;;;;9.90;4.72;;;;;;;26.42;58.01;64742.50;5031694;28;20286;-77
2022/05/28 08:17:56;;;;;;;5.15;3.65;;;;;;;26.54;56.40;64750.38;5031621;28;20198;-77
2022/05/28 08:23:08;;;;;;;9.05;4.35;;;;;;;26.76;57.89;64776.09;5039024;28;20220;-79
2022/05/28 08:23:09;;;;;;;6.00;4.80;;;;;;;26.92;55.19;64790.25;5043534;28;20224;-76
2022/05/28 08:25:36;;;;;;;7.15;4.28;;;;;;;27.22;54.34;64823.81;5044093;28;20221;-78
2022/05/28 08:28:03;;;;;;;4.88;4.38;;;;;;;26.68;55.88;64767.19;5042126;28;20225;-78
2022/05/28 08:30:30;;;;;;;6.18;4.45;;;;;;;26.46;56.21;64742.00;5043884;28;20240;-78
2022/05/28 08:32:58;;;;;;;6.80;4.55;;;;;;;26.52;52.90;64750.38;5044242;28;20208;-78
2022/05/28 08:35:25;;;;;;;12.98;5.10;;;;;;;26.44;54.81;64739.91;5043995;28;20224;-77
2022/05/28 08:37:52;;;;;;;8.65;4.32;;;;;;;26.13;54.22;64704.78;5042488;28;20201;-77
2022/05/28 08:40:19;;;;;;;8.80;4.57;;;;;;;25.93;51.95;64683.81;5043907;28;20225;-77
2022/05/28 08:42:46;;;;;;;6.30;5.25;;;;;;;25.66;54.13;64658.63;5042766;28;20268;-76
2022/05/28 08:45:15;;;;;;;11.85;4.47;;;;;;;25.39;56.19;64629.81;5043018;28;20263;-76
2022/05/28 08:47:45;;;;;;;13.25;5.47;;;;;;;25.75;55.92;64667.53;5041963;28;20209;-76
2022/05/28 08:50:13;;;;;;;9.13;4.40;;;;;;;25.85;54.57;64678.03;5043064;28;20544;-76
2022/05/28 08:52:47;;;;;;;7.60;4.15;;;;;;;25.88;52.22;64681.19;5043201;28;20209;-76
2022/05/28 08:55:17;;;;;;;10.63;4.72;;;;;;;25.68;55.75;64660.22;5042026;28;20237;-76
2022/05/28 08:58:00;;;;;;;6.65;4.60;;;;;;;25.62;54.17;64657.06;5042340;28;20487;-75
2022/05/28 09:00:34;;;;;;;9.23;4.22;;;;;;;25.72;54.68;64664.94;5044772;28;20217;-75
2022/05/28 09:03:07;;;;;;;10.68;4.80;;;;;;;25.79;53.84;64669.66;5035820;28;20235;-76
2022/05/28 09:05:45;;;;;;;6.75;4.88;;;;;;;25.79;53.22;64669.66;5044223;28;20237;-75
2022/05/28 09:08:15;;;;;;;7.05;4.78;;;;;;;25.67;52.94;64664.91;5045017;28;20197;-76
2022/05/28 09:10:47;;;;;;;12.20;4.93;;;;;;;25.84;54.64;64677.50;5045785;28;20275;-75
2022/05/28 09:13:22;;;;;;;6.47;4.22;;;;;;;26.23;52.81;64718.41;5043502;28;20248;-76
2022/05/28 09:15:49;;;;;;;12.38;4.95;;;;;;;26.50;50.67;64746.19;5045835;28;20217;-75
2022/05/28 09:18:18;;;;;;;16.17;5.53;;;;;;;26.48;51.05;64746.72;5034994;28;20198;-74
2022/05/28 09:20:47;;;;;;;9.02;4.47;;;;;;;26.66;50.61;64767.69;5044319;28;20256;-77
2022/05/28 09:23:15;;;;;;;10.38;4.88;;;;;;;26.49;53.45;64742.53;5044048;28;20209;-76
2022/05/28 09:25:46;;;;;;;7.95;4.68;;;;;;;26.89;51.73;64789.72;5027436;28;20214;-77
2022/05/28 09:28:29;;;;;;;9.30;4.80;;;;;;;26.91;52.11;64793.91;5026190;28;20261;-78
2022/05/28 09:31:03;;;;;;;7.50;4.82;;;;;;;26.65;52.77;64756.69;5045186;28;20237;-78
2022/05/28 09:33:56;;;;;;;12.30;4.82;;;;;;;27.22;52.26;64821.19;5045429;28;20260;-77
2022/05/28 09:36:37;;;;;;;13.57;5.28;;;;;;;27.35;51.59;64836.97;5045728;28;20196;-77
2022/05/28 09:39:25;;;;;;;8.35;5.25;;;;;;;27.52;50.57;64854.78;5044822;28;20197;-79
2022/05/28 09:42:08;;;;;;;12.02;5.18;;;;;;;27.91;49.97;64893.13;5033855;28;20276;-79
2022/05/28 09:44:44;;;;;;;10.55;4.60;;;;;;;27.43;48.65;64845.34;5043121;28;20602;-80
2022/05/28 09:47:14;;;;;;;12.70;4.38;;;;;;;27.82;48.13;64884.19;5043418;28;20208;-79
2022/05/28 09:49:49;;;;;;;5.03;4.32;;;;;;;27.52;49.73;64852.19;5042773;28;20220;-77
2022/05/28 09:52:25;;;;;;;14.35;5.78;;;;;;;27.86;49.07;64888.38;5043767;28;20287;-80
2022/05/28 09:54:50;;;;;;;7.88;5.55;;;;;;;28.19;47.96;64930.91;5035104;28;20259;-79
2022/05/28 09:57:26;;;;;;;8.98;4.65;;;;;;;28.43;48.39;64950.34;5050427;28;20197;-79
2022/05/28 09:59:59;;;;;;;8.52;4.47;;;;;;;28.94;49.85;65001.28;5049301;28;20216;-79
2022/05/28 10:02:29;;;;;;;7.35;4.50;;;;;;;28.85;48.68;64997.09;5043793;28;20209;-80
2022/05/28 10:04:58;;;;;;;6.35;4.70;;;;;;;28.94;47.93;65001.28;5031010;28;20218;-79
2022/05/28 10:07:32;;;;;;;10.40;6.35;;;;;;;29.41;46.03;65053.31;5034858;28;20213;-79
2022/05/28 10:10:01;;;;;;;13.05;5.75;;;;;;;29.24;45.89;65032.84;5045557;28;20213;-79
2022/05/28 10:12:30;;;;;;;10.40;5.53;;;;;;;29.48;44.97;65055.44;5035123;28;20226;-79
2022/05/28 10:15:02;;;;;;;23.98;5.90;;;;;;;30.04;44.49;65113.25;5045588;28;20217;-79
2022/05/28 10:17:31;;;;;;;14.20;5.18;;;;;;;29.34;44.38;65043.34;5045203;28;20190;-81
2022/05/28 10:20:01;;;;;;;9.20;5.15;;;;;;;29.50;45.56;65065.41;5047590;28;20288;-79
2022/05/28 10:22:35;;;;;;;5.03;4.55;;;;;;;29.75;43.28;65085.94;5043014;28;20225;-80
2022/05/28 10:25:06;;;;;;;8.18;5.18;;;;;;;29.82;45.19;65093.28;5037106;28;20221;-78
2022/05/28 10:27:51;;;;;;;10.90;5.95;;;;;;;29.66;46.52;65073.81;5042312;28;20198;-79
2022/05/28 10:30:31;;;;;;;5.68;5.18;;;;;;;29.89;45.33;65100.63;5044778;28;20289;-78
2022/05/28 10:32:58;;;;;;;9.30;5.70;;;;;;;29.73;45.79;65088.56;5049925;28;20427;-78
2022/05/28 10:35:27;;;;;;;16.75;6.78;;;;;;;29.57;47.07;65072.25;5037595;28;20226;-77
2022/05/28 10:38:07;;;;;;;9.68;5.25;;;;;;;29.38;47.59;65050.19;5044572;28;20202;-78
2022/05/28 10:40:34;;;;;;;6.43;4.72;;;;;;;29.60;46.49;65072.75;5047649;28;20247;-77
2022/05/28 10:43:05;;;;;;;9.63;5.20;;;;;;;29.58;45.42;65070.66;5043838;28;20225;-79
2022/05/28 10:45:42;;;;;;;6.50;4.70;;;;;;;29.23;47.21;65031.25;5048003;28;20221;-79
2022/05/28 10:48:33;;;;;;;9.85;5.20;;;;;;;29.94;46.87;65108.00;5030994;28;20203;-78
2022/05/28 10:51:11;;;;;;;10.25;5.07;;;;;;;30.00;46.66;65120.09;5033061;28;20254;-78
2022/05/28 10:53:59;;;;;;;14.35;5.72;;;;;;;29.94;45.72;65105.38;5044361;28;20206;-78
2022/05/28 10:56:46;;;;;;;5.72;4.70;;;;;;;30.05;45.57;65119.56;5026908;28;20193;-78
2022/05/28 10:59:34;;;;;;;4.45;4.05;;;;;;;30.16;42.70;65131.66;5038915;28;20204;-77
2022/05/28 11:02:14;;;;;;;10.50;4.20;;;;;;;30.23;44.10;65138.50;5042692;28;20217;-78
2022/05/28 11:04:50;;;;;;;8.32;4.80;;;;;;;30.31;42.37;65144.81;5035415;28;20458;-79
2022/05/28 11:07:39;;;;;;;7.20;4.55;;;;;;;29.00;43.04;65009.69;5041761;28;20197;-78
2022/05/28 11:10:38;;;;;;;10.45;5.30;;;;;;;28.64;44.25;64969.25;5031212;28;20253;-78
2022/05/28 11:13:28;;;;;;;8.98;4.45;;;;;;;29.10;45.02;65020.22;5044144;28;20224;-78
2022/05/28 11:16:26;;;;;;;6.78;5.50;;;;;;;29.84;44.92;65094.88;5025638;28;20218;-78
2022/05/28 11:19:10;;;;;;;11.48;4.80;;;;;;;29.79;41.75;65094.84;5029858;28;20205;-78
2022/05/28 11:21:55;;;;;;;8.93;4.57;;;;;;;30.10;42.24;65130.06;5033943;28;20593;-77
2022/05/28 11:24:49;;;;;;;8.80;5.32;;;;;;;29.74;43.55;65087.50;5036583;28;20225;-77
2022/05/28 11:27:34;;;;;;;11.02;4.90;;;;;;;29.29;44.46;65040.72;5032366;28;20198;-77
2022/05/28 11:30:06;;;;;;;11.45;5.30;;;;;;;29.43;44.11;65055.44;5035423;28;20221;-77
2022/05/28 11:32:39;;;;;;;7.82;4.68;;;;;;;29.63;43.04;65078.03;5041302;28;20302;-78
2022/05/28 11:35:11;;;;;;;6.97;4.82;;;;;;;29.39;43.64;65045.44;5040749;28;20526;-76
2022/05/28 11:37:43;;;;;;;10.90;5.40;;;;;;;29.40;42.62;65049.13;5036959;28;20518;-78
2022/05/28 11:40:19;;;;;;;5.20;4.72;;;;;;;29.32;43.30;65040.72;5040217;28;20225;-76
2022/05/28 11:42:52;;;;;;;17.25;5.85;;;;;;;29.66;41.44;65075.91;5030780;28;20197;-77